Terminal Aerodrome Forecast
Issued by NWS Cleveland, OH

Home | Current Version | Previous Version | Graphics & Text | Print | Product List | Glossary On
Versions: 1 2 3 4 5 6 7 8 9 10 11 12 13 14 15 16 17 18 19 20 21 22 23 24 25 26 27
000
FTUS41 KCLE 290857 AAA
TAFCLE
TAF AMD
KCLE 290857Z 2909/3012 VRB03KT P6SM SKC
     FM291300 17006KT P6SM SCT100
     FM291800 20010KT P6SM SCT040 BKN200
     FM300000 24008KT P6SM VCTS SCT050CB BKN200
     FM300400 26006KT P6SM SCT200=

USA.gov is the U.S. government's official web portal to all federal, state and local government web resources and services.